Time;durP1;ratioP1;P1;durP2;ratioP2;P2;SDS_P1;SDS_P2;PMS_P1;PMS_P2;Temp;Humidity;BMP_temperature;BMP_pressure;BME280_temperature;BME280_humidity;BME280_pressure;Samples;Min_cycle;Max_cycle;Signal;HPM_P1;HPM_P2
2024/01/14 00:01:30;;;;;;;1999.90;999.90;;;;;;;-7.97;73.25;96344.41;5113804;28;20405;-63
2024/01/14 00:03:57;;;;;;;1999.90;999.90;;;;;;;-8.04;73.31;96341.66;5113815;28;20401;-64
2024/01/14 00:06:25;;;;;;;1999.90;999.90;;;;;;;-8.12;73.60;96326.19;5113633;28;20054;-63
2024/01/14 00:08:52;;;;;;;1999.90;999.90;;;;;;;-8.19;73.49;96319.19;5113735;28;20044;-64
2024/01/14 00:11:21;;;;;;;1999.90;999.90;;;;;;;-8.25;73.57;96331.72;5113686;28;20044;-67
2024/01/14 00:13:48;;;;;;;1999.90;999.90;;;;;;;-8.47;74.39;96328.44;5113557;28;20044;-65
2024/01/14 00:16:16;;;;;;;1999.90;999.90;;;;;;;-8.42;74.76;96324.41;5113615;28;20127;-63
2024/01/14 00:18:43;;;;;;;1999.90;999.90;;;;;;;-8.45;74.72;96324.31;5113523;28;20043;-67
2024/01/14 00:21:10;;;;;;;1999.90;999.90;;;;;;;-8.42;74.95;96323.53;5113766;28;20117;-66
2024/01/14 00:23:37;;;;;;;1999.90;999.90;;;;;;;-8.37;74.80;96317.78;5113282;28;20086;-64
2024/01/14 00:26:04;;;;;;;1999.90;999.90;;;;;;;-8.39;74.87;96316.03;5113635;28;20493;-65
2024/01/14 00:28:32;;;;;;;1999.90;999.90;;;;;;;-8.40;74.69;96314.31;5113492;28;20108;-66
2024/01/14 00:30:59;;;;;;;1999.90;999.90;;;;;;;-8.35;74.85;96319.50;5113387;28;20075;-66
2024/01/14 00:33:26;;;;;;;1999.90;999.90;;;;;;;-8.38;74.58;96315.19;5113430;28;20044;-65
2024/01/14 00:35:53;;;;;;;1999.90;999.90;;;;;;;-8.43;74.61;96312.50;5113408;28;20122;-67
2024/01/14 00:38:20;;;;;;;1999.90;999.90;;;;;;;-8.45;74.85;96315.81;5113385;28;20048;-66
2024/01/14 00:40:48;;;;;;;1999.90;999.90;;;;;;;-8.42;74.54;96316.78;5113425;28;20086;-63
2024/01/14 00:43:15;;;;;;;1999.90;999.90;;;;;;;-8.40;74.44;96309.22;5113194;28;20539;-67
2024/01/14 00:45:43;;;;;;;1999.90;999.90;;;;;;;-8.34;74.31;96306.88;5113353;28;20130;-64
2024/01/14 00:48:10;;;;;;;1999.90;999.90;;;;;;;-8.33;74.28;96300.13;5113232;28;20047;-65
2024/01/14 00:50:37;;;;;;;1999.90;999.90;;;;;;;-8.40;74.02;96307.53;5113143;28;20051;-65
2024/01/14 00:53:04;;;;;;;1999.90;999.90;;;;;;;-8.47;74.33;96300.53;5113421;28;20544;-67
2024/01/14 00:55:32;;;;;;;1999.90;999.90;;;;;;;-8.48;74.72;96296.28;5113195;28;20040;-64
2024/01/14 00:57:59;;;;;;;1999.90;999.90;;;;;;;-8.50;74.80;96293.69;5113229;28;20077;-66
2024/01/14 01:00:26;;;;;;;1999.90;999.90;;;;;;;-8.42;74.58;96286.34;5113264;28;20044;-65
2024/01/14 01:02:55;;;;;;;1999.90;999.90;;;;;;;-8.42;74.48;96288.00;5113050;28;20112;-64
2024/01/14 01:05:22;;;;;;;1999.90;999.90;;;;;;;-8.46;74.28;96283.66;5114429;28;20048;-65
2024/01/14 01:07:49;;;;;;;1999.90;999.90;;;;;;;-8.56;74.38;96283.38;5116956;28;20047;-66
2024/01/14 01:10:16;;;;;;;1999.90;999.90;;;;;;;-8.51;74.45;96274.22;5116982;28;20047;-66
2024/01/14 01:12:43;;;;;;;1999.90;999.90;;;;;;;-8.55;74.00;96274.09;5116823;28;20508;-66
2024/01/14 01:15:11;;;;;;;1999.90;999.90;;;;;;;-8.57;74.05;96275.72;5116955;28;20040;-64
2024/01/14 01:17:38;;;;;;;1999.90;999.90;;;;;;;-8.56;73.61;96267.28;5116915;28;20051;-65
2024/01/14 01:20:08;;;;;;;1999.90;999.90;;;;;;;-8.65;73.85;96257.69;5116844;28;20401;-63
2024/01/14 01:22:36;;;;;;;1999.90;999.90;;;;;;;-8.63;75.44;96259.50;5116748;28;20481;-64
2024/01/14 01:25:04;;;;;;;1999.90;999.90;;;;;;;-8.59;75.21;96259.56;5116696;28;20051;-66
2024/01/14 01:27:31;;;;;;;1999.90;999.90;;;;;;;-8.55;74.87;96252.09;5116722;28;20179;-64
2024/01/14 01:29:58;;;;;;;1999.90;999.90;;;;;;;-8.56;74.50;96250.38;5116798;28;20137;-66
2024/01/14 01:32:25;;;;;;;1999.90;999.90;;;;;;;-8.57;74.50;96255.41;5116510;28;20061;-67
2024/01/14 01:34:54;;;;;;;1999.90;999.90;;;;;;;-8.53;74.64;96258.06;5116475;28;20051;-65
2024/01/14 01:37:22;;;;;;;1999.90;999.90;;;;;;;-8.47;74.33;96249.78;5116496;28;20487;-65
2024/01/14 01:39:49;;;;;;;1999.90;999.90;;;;;;;-8.45;73.84;96240.56;5116355;28;20108;-65
2024/01/14 01:42:16;;;;;;;1999.90;999.90;;;;;;;-8.48;74.05;96243.00;5116210;28;20086;-65
2024/01/14 01:44:43;;;;;;;1999.90;999.90;;;;;;;-8.47;74.12;96238.75;5116321;28;20043;-65
2024/01/14 01:47:11;;;;;;;1999.90;999.90;;;;;;;-8.47;73.70;96231.16;5116262;28;20047;-64
2024/01/14 01:49:38;;;;;;;1999.90;999.90;;;;;;;-8.46;73.53;96235.44;5116297;28;20050;-65
2024/01/14 01:52:06;;;;;;;1999.90;999.90;;;;;;;-8.47;73.46;96226.06;5116082;28;20055;-63
2024/01/14 01:54:36;;;;;;;1999.90;999.90;;;;;;;-8.58;73.73;96228.31;5116260;28;20409;-64
2024/01/14 01:57:03;;;;;;;1999.90;999.90;;;;;;;-8.61;74.04;96225.69;5116096;28;20069;-64
2024/01/14 01:59:31;;;;;;;1999.90;999.90;;;;;;;-8.74;73.92;96229.50;5116075;28;20146;-65
2024/01/14 02:02:00;;;;;;;1999.90;999.90;;;;;;;-8.73;74.48;96221.97;5116068;28;20534;-65
2024/01/14 02:04:28;;;;;;;1999.90;999.90;;;;;;;-8.71;74.26;96217.78;5115824;28;20044;-66
2024/01/14 02:06:56;;;;;;;1999.90;999.90;;;;;;;-8.82;74.65;96214.88;5115871;28;20048;-66
2024/01/14 02:09:23;;;;;;;1999.90;999.90;;;;;;;-8.85;74.76;96213.94;5115837;28;20051;-64
2024/01/14 02:11:52;;;;;;;1999.90;999.90;;;;;;;-8.90;74.99;96211.25;5115701;28;20048;-65
2024/01/14 02:14:19;;;;;;;1999.90;999.90;;;;;;;-8.96;74.81;96213.56;5115708;28;20051;-64
2024/01/14 02:16:46;;;;;;;1999.90;999.90;;;;;;;-9.01;74.89;96206.69;5114557;28;20052;-66
2024/01/14 02:19:13;;;;;;;1999.90;999.90;;;;;;;-9.02;74.79;96204.97;5115685;28;20039;-63
2024/01/14 02:21:45;;;;;;;1999.90;999.90;;;;;;;-8.95;74.63;96198.41;5115723;28;20075;-63
2024/01/14 02:24:24;;;;;;;1999.90;999.90;;;;;;;-8.94;74.46;96197.59;5115546;28;20055;-66
2024/01/14 02:26:52;;;;;;;1999.90;999.90;;;;;;;-8.98;75.21;96193.25;5115576;28;20075;-66
2024/01/14 02:29:20;;;;;;;1999.90;999.90;;;;;;;-8.97;75.87;96191.56;5115353;28;20052;-66
2024/01/14 02:31:47;;;;;;;1999.90;999.90;;;;;;;-8.99;75.56;96188.13;5115567;28;20043;-65
2024/01/14 02:34:15;;;;;;;1999.90;999.90;;;;;;;-9.09;75.45;96199.63;5115438;28;20097;-62
2024/01/14 02:36:42;;;;;;;1999.90;999.90;;;;;;;-9.14;75.44;96186.81;5115330;28;20116;-64
2024/01/14 02:39:10;;;;;;;1999.90;999.90;;;;;;;-9.16;74.99;96181.69;5115234;28;20048;-65
2024/01/14 02:41:38;;;;;;;1999.90;999.90;;;;;;;-9.22;74.92;96176.41;5115213;28;20070;-63
2024/01/14 02:44:06;;;;;;;1999.90;999.90;;;;;;;-9.27;75.33;96172.88;5115067;28;20101;-63
2024/01/14 02:46:33;;;;;;;1999.90;999.90;;;;;;;-9.30;76.03;96171.06;5115272;28;20093;-63
2024/01/14 02:49:00;;;;;;;1999.90;999.90;;;;;;;-9.23;76.31;96176.34;5115134;28;20047;-63
2024/01/14 02:51:27;;;;;;;1999.90;999.90;;;;;;;-9.17;75.77;96182.50;5114833;28;20090;-63
2024/01/14 02:53:54;;;;;;;1999.90;999.90;;;;;;;-9.13;75.54;96186.00;5114992;28;20048;-64
2024/01/14 02:56:21;;;;;;;1999.90;999.90;;;;;;;-9.13;75.34;96178.38;5114849;28;20485;-66
2024/01/14 02:58:50;;;;;;;1999.90;999.90;;;;;;;-9.11;75.39;96176.78;5114891;28;20043;-64
2024/01/14 03:01:16;;;;;;;1999.90;999.90;;;;;;;-9.05;75.14;96171.03;5114847;28;20055;-62
2024/01/14 03:03:44;;;;;;;1999.90;999.90;;;;;;;-9.01;74.82;96172.84;5114634;28;20142;-62
2024/01/14 03:06:11;;;;;;;1999.90;999.90;;;;;;;-8.99;74.86;96170.38;5114737;28;20043;-65
2024/01/14 03:08:38;;;;;;;1999.90;999.90;;;;;;;-9.05;74.68;96168.50;5114705;28;20184;-64
2024/01/14 03:11:05;;;;;;;1999.90;999.90;;;;;;;-9.15;74.38;96162.28;5114861;28;20105;-64
2024/01/14 03:13:32;;;;;;;1999.90;999.90;;;;;;;-9.14;74.88;96164.00;5114626;28;20082;-64
2024/01/14 03:16:01;;;;;;;1999.90;999.90;;;;;;;-9.14;74.88;96153.84;5114661;28;20427;-65
2024/01/14 03:18:28;;;;;;;1999.90;999.90;;;;;;;-9.20;74.67;96154.53;5114509;28;20489;-63
2024/01/14 03:20:55;;;;;;;1999.90;999.90;;;;;;;-9.23;74.87;96146.81;5114389;28;20485;-63
2024/01/14 03:23:22;;;;;;;1999.90;999.90;;;;;;;-9.13;75.08;96147.97;5114303;28;20079;-65
2024/01/14 03:25:49;;;;;;;1999.90;999.90;;;;;;;-9.11;74.66;96153.97;5114272;28;20536;-66
2024/01/14 03:28:16;;;;;;;1999.90;999.90;;;;;;;-9.08;74.33;96155.72;5114035;28;20465;-65
2024/01/14 03:30:45;;;;;;;1999.90;999.90;;;;;;;-9.08;73.72;96151.53;5114284;28;20049;-65
2024/01/14 03:33:13;;;;;;;1999.90;999.90;;;;;;;-9.08;73.55;96164.19;5114147;28;20050;-65
2024/01/14 03:35:40;;;;;;;1999.90;999.90;;;;;;;-9.09;73.42;96157.41;5114212;28;20079;-66
2024/01/14 03:38:07;;;;;;;1999.90;999.90;;;;;;;-9.07;73.23;96154.91;5114107;28;20120;-64
2024/01/14 03:40:35;;;;;;;1999.90;999.90;;;;;;;-9.07;73.13;96159.97;5114026;28;20108;-62
2024/01/14 03:43:02;;;;;;;1999.90;999.90;;;;;;;-9.21;73.17;96151.94;5114029;28;20043;-64
2024/01/14 03:45:29;;;;;;;1999.90;999.90;;;;;;;-9.22;73.47;96152.75;5114030;28;20051;-64
2024/01/14 03:47:56;;;;;;;1999.90;999.90;;;;;;;-9.28;73.76;96150.84;5113808;28;20048;-67
2024/01/14 03:50:24;;;;;;;1999.90;999.90;;;;;;;-9.28;74.12;96140.72;5113880;28;20093;-67
2024/01/14 03:52:51;;;;;;;1999.90;999.90;;;;;;;-9.25;74.34;96143.34;5113700;28;20131;-63
2024/01/14 03:55:17;;;;;;;1999.90;999.90;;;;;;;-9.19;73.80;96147.75;5114012;28;20083;-67
2024/01/14 03:57:44;;;;;;;1999.90;999.90;;;;;;;-9.19;73.39;96148.63;5113718;28;20050;-65
2024/01/14 04:00:12;;;;;;;1999.90;999.90;;;;;;;-9.42;73.59;96120.00;5113777;28;20489;-67
2024/01/14 04:02:39;;;;;;;1999.90;999.90;;;;;;;-9.29;74.04;96142.41;5113811;28;20067;-66
2024/01/14 04:05:07;;;;;;;1999.90;999.90;;;;;;;-9.34;74.13;96138.00;5113493;28;20462;-64
2024/01/14 04:07:36;;;;;;;1999.90;999.90;;;;;;;-9.32;74.21;96139.78;5113530;28;20489;-66
2024/01/14 04:10:03;;;;;;;1999.90;999.90;;;;;;;-9.31;74.19;96143.16;5113697;28;20056;-64
2024/01/14 04:12:30;;;;;;;1999.90;999.90;;;;;;;-9.42;74.15;96138.59;5113606;28;20073;-67
2024/01/14 04:14:57;;;;;;;1999.90;999.90;;;;;;;-9.42;74.25;96142.81;5113662;28;20051;-66
2024/01/14 04:17:24;;;;;;;1999.90;999.90;;;;;;;-9.55;74.46;96142.38;5113750;28;20069;-65
2024/01/14 04:19:51;;;;;;;1999.90;999.90;;;;;;;-9.49;74.96;96143.41;5113490;28;20101;-66
2024/01/14 04:22:18;;;;;;;1999.90;999.90;;;;;;;-9.46;74.60;96139.28;5113436;28;20043;-66
2024/01/14 04:24:47;;;;;;;1999.90;999.90;;;;;;;-9.46;74.44;96143.53;5113308;28;20060;-67
2024/01/14 04:27:14;;;;;;;1999.90;999.90;;;;;;;-9.43;74.43;96133.47;5113468;28;20135;-66
2024/01/14 04:29:41;;;;;;;1999.90;999.90;;;;;;;-9.39;74.31;96125.19;5113560;28;20051;-67
2024/01/14 04:32:08;;;;;;;1999.90;999.90;;;;;;;-9.54;74.27;96130.59;5113371;28;20044;-67
2024/01/14 04:34:35;;;;;;;1999.90;999.90;;;;;;;-9.58;74.61;96137.22;5113243;28;20052;-64
2024/01/14 04:37:02;;;;;;;1999.90;999.90;;;;;;;-9.60;75.14;96133.78;5113271;28;20462;-65
2024/01/14 04:39:29;;;;;;;1999.90;999.90;;;;;;;-9.56;75.24;96144.88;5113464;28;20104;-67
2024/01/14 04:41:58;;;;;;;1999.90;999.90;;;;;;;-9.62;75.10;96144.66;5117418;28;20083;-64
2024/01/14 04:44:25;;;;;;;1999.90;999.90;;;;;;;-9.59;75.43;96154.88;5117440;28;20104;-64
2024/01/14 04:46:52;;;;;;;1999.90;999.90;;;;;;;-9.65;75.35;96150.47;5117595;28;20150;-64
2024/01/14 04:49:19;;;;;;;1999.90;999.90;;;;;;;-9.66;75.44;96136.94;5117266;28;20487;-64
2024/01/14 04:51:46;;;;;;;1999.90;999.90;;;;;;;-9.64;75.64;96135.34;5117088;28;20043;-65
2024/01/14 04:54:13;;;;;;;1999.90;999.90;;;;;;;-9.55;75.34;96137.31;5117251;28;20050;-67
2024/01/14 04:56:40;;;;;;;1999.90;999.90;;;;;;;-9.49;75.15;96143.41;5117101;28;20047;-67
2024/01/14 04:59:09;;;;;;;1999.90;999.90;;;;;;;-9.44;75.31;96139.34;5117259;28;20082;-64
2024/01/14 05:01:36;;;;;;;1999.90;999.90;;;;;;;-9.40;74.71;96139.50;5117145;28;20485;-67
2024/01/14 05:04:03;;;;;;;1999.90;999.90;;;;;;;-9.39;74.31;96128.56;5117002;28;20047;-67
2024/01/14 05:06:31;;;;;;;1999.90;999.90;;;;;;;-9.42;73.84;96128.44;5117218;28;20134;-67
2024/01/14 05:08:58;;;;;;;1999.90;999.90;;;;;;;-9.42;73.55;96128.44;5116991;28;20127;-63
2024/01/14 05:11:25;;;;;;;1999.90;999.90;;;;;;;-9.49;74.20;96125.69;5116968;28;20043;-63
2024/01/14 05:13:52;;;;;;;1999.90;999.90;;;;;;;-9.56;73.97;96130.53;5116897;28;20083;-64
2024/01/14 05:16:21;;;;;;;1999.90;999.90;;;;;;;-9.61;74.23;96134.56;5116940;28;20051;-64
2024/01/14 05:18:48;;;;;;;1999.90;999.90;;;;;;;-9.66;74.71;96128.50;5116880;28;20490;-65
2024/01/14 05:21:16;;;;;;;1999.90;999.90;;;;;;;-9.62;74.74;96130.31;5116816;28;20117;-64
2024/01/14 05:23:43;;;;;;;1999.90;999.90;;;;;;;-9.68;74.41;96125.03;5116621;28;20083;-64
2024/01/14 05:26:12;;;;;;;1999.90;999.90;;;;;;;-9.73;74.26;96122.34;5116827;28;20043;-65
2024/01/14 05:28:39;;;;;;;1999.90;999.90;;;;;;;-9.69;74.09;96121.63;5116493;28;20068;-66
2024/01/14 05:31:06;;;;;;;1999.90;999.90;;;;;;;-9.68;73.88;96122.50;5116624;28;20051;-64
2024/01/14 05:33:34;;;;;;;1999.90;999.90;;;;;;;-9.75;74.15;96116.38;5116543;28;20048;-63
2024/01/14 05:36:02;;;;;;;1999.90;999.90;;;;;;;-9.76;74.51;96112.13;5116571;28;20051;-62
2024/01/14 05:38:29;;;;;;;1999.90;999.90;;;;;;;-9.68;74.19;96114.91;5116354;28;20051;-63
2024/01/14 05:40:56;;;;;;;1999.90;999.90;;;;;;;-9.70;74.50;96112.31;5116360;28;20044;-66
2024/01/14 05:43:23;;;;;;;1999.90;999.90;;;;;;;-9.68;74.56;96110.72;5116269;28;20135;-65
2024/01/14 05:45:51;;;;;;;1999.90;999.90;;;;;;;-9.69;74.67;96113.19;5116324;28;20546;-64
2024/01/14 05:48:19;;;;;;;1999.90;999.90;;;;;;;-9.66;74.76;96114.16;5116338;28;20048;-65
2024/01/14 05:50:47;;;;;;;1999.90;999.90;;;;;;;-9.80;75.14;96115.34;5115719;28;20545;-64
2024/01/14 05:53:15;;;;;;;1999.90;999.90;;;;;;;-9.84;75.39;96113.53;5116305;28;20442;-65
2024/01/14 05:55:42;;;;;;;1999.90;999.90;;;;;;;-9.76;75.64;96109.59;5116237;28;20078;-64
2024/01/14 05:58:09;;;;;;;1999.90;999.90;;;;;;;-9.66;75.57;96110.78;5116311;28;20454;-62
2024/01/14 06:00:36;;;;;;;1999.90;999.90;;;;;;;-9.67;75.38;96112.44;5116223;28;20044;-65
2024/01/14 06:03:03;;;;;;;1999.90;999.90;;;;;;;-9.68;76.20;96108.19;5116136;28;20047;-66
2024/01/14 06:05:31;;;;;;;1999.90;999.90;;;;;;;-9.58;76.39;96104.28;5115811;28;20108;-64
2024/01/14 06:07:59;;;;;;;1999.90;999.90;;;;;;;-9.43;75.95;96110.66;5115877;28;20600;-65
2024/01/14 06:10:27;;;;;;;1999.90;999.90;;;;;;;-9.37;75.64;96100.72;5115900;28;20101;-64
2024/01/14 06:12:54;;;;;;;1999.90;999.90;;;;;;;-9.27;75.21;96109.50;5115893;28;20122;-66
2024/01/14 06:15:21;;;;;;;1999.90;999.90;;;;;;;-9.20;74.94;96103.84;5115657;28;20048;-65
2024/01/14 06:17:48;;;;;;;1999.90;999.90;;;;;;;-9.17;75.46;96098.88;5115603;28;20055;-64
2024/01/14 06:20:15;;;;;;;1999.90;999.90;;;;;;;-9.16;75.61;96102.25;5115738;28;20097;-65
2024/01/14 06:22:42;;;;;;;1999.90;999.90;;;;;;;-8.94;76.96;96095.31;5115605;28;20047;-64
2024/01/14 06:25:11;;;;;;;1999.90;999.90;;;;;;;-7.71;77.56;96097.91;5115487;28;20082;-64
2024/01/14 06:27:38;;;;;;;1999.90;999.90;;;;;;;-5.94;71.94;96102.75;5115565;28;20052;-66
2024/01/14 06:30:07;;;;;;;1999.90;999.90;;;;;;;-4.21;63.67;96113.19;5115452;28;20441;-65
2024/01/14 06:32:34;;;;;;;1999.90;999.90;;;;;;;-2.40;58.76;96097.00;5115407;28;20529;-62
2024/01/14 06:35:01;;;;;;;1999.90;999.90;;;;;;;-0.73;54.43;96105.16;5115476;28;20094;-64
2024/01/14 06:37:28;;;;;;;1999.90;999.90;;;;;;;0.72;48.30;96104.72;5115415;28;20466;-62
2024/01/14 06:39:56;;;;;;;1999.90;999.90;;;;;;;1.59;44.76;96108.34;5115229;28;20059;-63
2024/01/14 06:42:24;;;;;;;1999.90;999.90;;;;;;;2.75;44.12;96105.34;5115153;28;20086;-64
2024/01/14 06:44:52;;;;;;;1999.90;999.90;;;;;;;4.11;41.82;96112.59;5115100;28;20054;-62
2024/01/14 06:47:19;;;;;;;1999.90;999.90;;;;;;;5.30;39.13;96106.63;5115122;28;20051;-63
2024/01/14 06:49:46;;;;;;;1999.90;999.90;;;;;;;6.26;36.11;96114.63;5115068;28;20126;-64
2024/01/14 06:52:14;;;;;;;1999.90;999.90;;;;;;;7.13;34.92;96106.91;5114782;28;20493;-65
2024/01/14 06:54:41;;;;;;;1999.90;999.90;;;;;;;7.57;34.05;96119.41;5115059;28;20128;-65
2024/01/14 06:57:08;;;;;;;1999.90;999.90;;;;;;;8.20;32.40;96123.38;5114931;28;20044;-64
2024/01/14 06:59:37;;;;;;;1999.90;999.90;;;;;;;9.01;31.47;96118.75;5114877;28;20068;-64
2024/01/14 07:02:05;;;;;;;1999.90;999.90;;;;;;;9.76;30.65;96113.19;5114888;28;20477;-66
2024/01/14 07:04:32;;;;;;;1999.90;999.90;;;;;;;9.71;30.14;96105.56;5114021;28;20055;-63
2024/01/14 07:06:59;;;;;;;1999.90;999.90;;;;;;;9.13;31.21;96101.78;5114797;28;20055;-62
2024/01/14 07:09:26;;;;;;;1999.90;999.90;;;;;;;8.67;31.93;96094.81;5114778;28;20076;-66
2024/01/14 07:11:54;;;;;;;1999.90;999.90;;;;;;;8.75;32.60;96112.75;5114676;28;20044;-67
2024/01/14 07:14:22;;;;;;;1999.90;999.90;;;;;;;8.89;32.78;96123.56;5114676;28;20040;-65
2024/01/14 07:16:53;;;;;;;1999.90;999.90;;;;;;;9.30;32.46;96119.41;5114526;28;20130;-62
2024/01/14 07:19:21;;;;;;;1999.90;999.90;;;;;;;9.88;31.75;96111.84;5114641;28;20048;-63
2024/01/14 07:21:48;;;;;;;1999.90;999.90;;;;;;;10.28;31.11;96110.13;5114421;28;20048;-65
2024/01/14 07:24:15;;;;;;;1999.90;999.90;;;;;;;10.53;30.57;96095.16;5114647;28;20051;-65
2024/01/14 07:26:43;;;;;;;1999.90;999.90;;;;;;;10.67;30.73;96090.16;5114401;28;20052;-65
2024/01/14 07:29:10;;;;;;;1999.90;999.90;;;;;;;10.68;30.80;96091.84;5114218;28;20052;-65
2024/01/14 07:31:38;;;;;;;1999.90;999.90;;;;;;;10.44;31.51;96084.16;5114265;28;20051;-62
2024/01/14 07:34:07;;;;;;;1999.90;999.90;;;;;;;10.17;31.95;96084.47;5114373;28;20146;-66
2024/01/14 07:36:35;;;;;;;1999.90;999.90;;;;;;;9.94;31.97;96083.69;5114242;28;20044;-65
2024/01/14 07:39:04;;;;;;;1999.90;999.90;;;;;;;9.95;32.27;96089.75;5114116;28;20047;-65
2024/01/14 07:41:32;;;;;;;1999.90;999.90;;;;;;;10.12;31.44;96089.06;5114033;28;20130;-65
2024/01/14 07:43:59;;;;;;;1999.90;999.90;;;;;;;10.35;31.29;96092.41;5114116;28;20082;-65
2024/01/14 07:46:26;;;;;;;1999.90;999.90;;;;;;;10.73;31.40;96099.47;5114038;28;20048;-64
2024/01/14 07:48:54;;;;;;;1999.90;999.90;;;;;;;11.17;31.08;96098.31;5113990;28;20083;-64
2024/01/14 07:51:23;;;;;;;1999.90;999.90;;;;;;;11.93;30.01;96096.44;5113665;28;20054;-65
2024/01/14 07:53:50;;;;;;;1999.90;999.90;;;;;;;12.66;28.81;96085.75;5113959;28;20131;-65
2024/01/14 07:56:19;;;;;;;1999.90;999.90;;;;;;;13.21;28.23;96100.25;5113964;28;20050;-64
2024/01/14 07:58:47;;;;;;;1999.90;999.90;;;;;;;12.98;28.17;96086.59;5113863;28;20058;-63
2024/01/14 08:01:14;;;;;;;1999.90;999.90;;;;;;;11.67;30.28;96085.47;5113965;28;20485;-66
2024/01/14 08:03:41;;;;;;;1999.90;999.90;;;;;;;11.55;30.56;96084.31;5113776;28;20047;-63
2024/01/14 08:06:10;;;;;;;1999.90;999.90;;;;;;;11.96;30.17;96098.03;5113631;28;20501;-65
2024/01/14 08:08:39;;;;;;;1999.90;999.90;;;;;;;11.99;30.05;96103.97;5113706;28;20044;-66
2024/01/14 08:11:07;;;;;;;1999.90;999.90;;;;;;;11.34;30.28;96100.13;5114417;28;20108;-62
2024/01/14 08:13:37;;;;;;;1999.90;999.90;;;;;;;11.17;31.18;96102.72;5113700;28;20096;-66
2024/01/14 08:16:04;;;;;;;1999.90;999.90;;;;;;;11.08;31.80;96101.38;5112917;28;20050;-66
2024/01/14 08:18:32;;;;;;;1999.90;999.90;;;;;;;10.37;32.64;96095.81;5113550;28;20104;-66
2024/01/14 08:20:59;;;;;;;1999.90;999.90;;;;;;;9.88;33.64;96090.94;5113594;28;20078;-65
2024/01/14 08:23:28;;;;;;;1999.90;999.90;;;;;;;10.01;33.29;96093.88;5113642;28;20051;-62
2024/01/14 08:25:57;;;;;;;1999.90;999.90;;;;;;;9.69;32.95;96094.34;5113383;28;20052;-63
2024/01/14 08:28:25;;;;;;;1999.90;999.90;;;;;;;9.78;32.75;96090.50;5113634;28;20039;-66
2024/01/14 08:30:52;;;;;;;1999.90;999.90;;;;;;;9.31;32.88;96089.75;5113645;28;20083;-65
2024/01/14 08:33:20;;;;;;;1999.90;999.90;;;;;;;8.59;33.81;96093.34;5113387;28;20052;-66
2024/01/14 08:35:47;;;;;;;1999.90;999.90;;;;;;;8.04;35.28;96094.38;5113485;28;20516;-64
2024/01/14 08:38:14;;;;;;;1999.90;999.90;;;;;;;7.73;35.80;96090.25;5113420;28;20048;-64
2024/01/14 08:40:41;;;;;;;1999.90;999.90;;;;;;;7.14;37.45;96082.59;5113378;28;20043;-62
2024/01/14 08:43:10;;;;;;;1999.90;999.90;;;;;;;7.02;37.82;96078.63;5113407;28;20082;-64
2024/01/14 08:45:38;;;;;;;1999.90;999.90;;;;;;;6.91;38.17;96078.97;5113356;28;20461;-65
2024/01/14 08:48:06;;;;;;;1999.90;999.90;;;;;;;6.75;38.73;96065.59;5113262;28;20050;-67
2024/01/14 08:50:34;;;;;;;1999.90;999.90;;;;;;;5.81;39.80;96077.72;5113436;28;20122;-63
2024/01/14 08:53:01;;;;;;;1999.90;999.90;;;;;;;5.15;41.25;96068.94;5113436;28;20508;-67
2024/01/14 08:55:29;;;;;;;1999.90;999.90;;;;;;;4.63;41.96;96060.59;5113264;28;20100;-66
2024/01/14 08:57:56;;;;;;;1999.90;999.90;;;;;;;4.26;43.15;96059.66;5113432;28;20135;-65
2024/01/14 09:00:25;;;;;;;1999.90;999.90;;;;;;;3.85;43.89;96057.84;5113207;28;20079;-66
2024/01/14 09:02:52;;;;;;;1999.90;999.90;;;;;;;3.61;44.62;96052.25;5113227;28;20379;-66
2024/01/14 09:05:20;;;;;;;1999.90;999.90;;;;;;;3.53;44.40;96043.78;5113021;28;20047;-67
2024/01/14 09:07:47;;;;;;;1999.90;999.90;;;;;;;3.38;45.21;96050.09;5113093;28;20461;-67
2024/01/14 09:10:15;;;;;;;1999.90;999.90;;;;;;;3.45;45.51;96048.22;5113049;28;20048;-64
2024/01/14 09:12:42;;;;;;;1999.90;999.90;;;;;;;3.25;46.47;96049.47;5113111;28;20504;-64
2024/01/14 09:15:10;;;;;;;1999.90;999.90;;;;;;;3.35;46.37;96032.91;5112978;28;20474;-66
2024/01/14 09:17:38;;;;;;;1999.90;999.90;;;;;;;3.22;45.49;96028.81;5113046;28;20040;-68
2024/01/14 09:20:06;;;;;;;1999.90;999.90;;;;;;;3.09;46.41;96030.75;5112910;28;20050;-63
2024/01/14 09:22:34;;;;;;;1999.90;999.90;;;;;;;3.11;47.06;96027.28;5112959;28;20039;-66
2024/01/14 09:25:01;;;;;;;1999.90;999.90;;;;;;;3.09;47.17;96028.16;5112815;28;20497;-67
2024/01/14 09:27:30;;;;;;;1999.90;999.90;;;;;;;3.18;44.63;96024.56;5115955;28;20386;-66
2024/01/14 09:29:57;;;;;;;1999.90;999.90;;;;;;;3.05;46.83;96008.41;5116769;28;20055;-67
2024/01/14 09:32:26;;;;;;;1999.90;999.90;;;;;;;3.16;46.32;96002.19;5116588;28;20550;-67
2024/01/14 09:34:57;;;;;;;1999.90;999.90;;;;;;;3.19;47.80;95998.69;5116545;28;20436;-67
2024/01/14 09:37:24;;;;;;;1999.90;999.90;;;;;;;3.10;46.58;96002.28;5116573;28;20047;-68
2024/01/14 09:39:51;;;;;;;1999.90;999.90;;;;;;;3.05;47.11;96000.66;5116503;28;20499;-66
2024/01/14 09:42:25;;;;;;;1999.90;999.90;;;;;;;3.06;46.95;95994.59;5116517;28;20050;-63
2024/01/14 09:44:59;;;;;;;1999.90;999.90;;;;;;;3.03;46.65;95991.22;5116393;28;20044;-65
2024/01/14 09:47:28;;;;;;;1999.90;999.90;;;;;;;3.07;45.39;95978.25;5116320;28;20173;-65
2024/01/14 09:50:00;;;;;;;1999.90;999.90;;;;;;;3.00;45.92;95970.59;5116316;28;20058;-64
2024/01/14 09:52:30;;;;;;;1999.90;999.90;;;;;;;3.04;45.04;95976.53;5115998;28;20058;-65
2024/01/14 09:54:58;;;;;;;1999.90;999.90;;;;;;;3.02;45.06;95978.31;5116245;28;20048;-64
2024/01/14 09:57:27;;;;;;;1999.90;999.90;;;;;;;3.00;46.16;95965.41;5116145;28;20048;-67
2024/01/14 09:59:55;;;;;;;1999.90;999.90;;;;;;;3.04;46.41;95958.44;5116118;28;20126;-66
2024/01/14 10:02:23;;;;;;;1999.90;999.90;;;;;;;2.92;46.92;95964.69;5115969;28;20559;-65
2024/01/14 10:04:51;;;;;;;1999.90;999.90;;;;;;;2.97;47.27;95962.03;5115970;28;20055;-68
2024/01/14 10:07:20;;;;;;;1999.90;999.90;;;;;;;3.07;47.09;95953.22;5115882;28;20039;-64
2024/01/14 10:09:48;;;;;;;1999.90;999.90;;;;;;;3.12;45.88;95958.31;5116003;28;20055;-66
2024/01/14 10:12:16;;;;;;;1999.90;999.90;;;;;;;3.14;46.23;95944.50;5115853;28;20044;-63
2024/01/14 10:14:44;;;;;;;1999.90;999.90;;;;;;;3.44;46.17;95938.78;5115753;28;20128;-64
2024/01/14 10:17:14;;;;;;;1999.90;999.90;;;;;;;3.56;45.58;95937.69;5115953;28;20051;-66
2024/01/14 10:19:42;;;;;;;1999.90;999.90;;;;;;;3.69;46.20;95940.03;5115776;28;20043;-66
2024/01/14 10:22:09;;;;;;;1999.90;999.90;;;;;;;3.70;44.71;95936.56;5115689;28;20047;-65
2024/01/14 10:24:38;;;;;;;1999.90;999.90;;;;;;;3.84;44.98;95936.25;5115717;28;20050;-66
2024/01/14 10:27:06;;;;;;;1999.90;999.90;;;;;;;3.76;45.00;95949.34;5115669;28;20055;-68
2024/01/14 10:29:33;;;;;;;1999.90;999.90;;;;;;;3.73;44.75;95939.94;5115778;28;20043;-64
2024/01/14 10:32:00;;;;;;;1999.90;999.90;;;;;;;3.71;44.78;95933.94;5115563;28;20044;-67
2024/01/14 10:34:28;;;;;;;1999.90;999.90;;;;;;;3.79;44.42;95933.78;5115400;28;20455;-64
2024/01/14 10:37:01;;;;;;;1999.90;999.90;;;;;;;3.86;44.44;95940.53;5115371;28;20096;-63
2024/01/14 10:39:31;;;;;;;1999.90;999.90;;;;;;;3.79;43.50;95932.03;5114544;28;20051;-67
2024/01/14 10:42:00;;;;;;;1999.90;999.90;;;;;;;3.75;43.71;95926.97;5115325;28;20481;-66
2024/01/14 10:44:27;;;;;;;1999.90;999.90;;;;;;;3.71;45.19;95920.16;5115245;28;20039;-67
2024/01/14 10:46:56;;;;;;;1999.90;999.90;;;;;;;3.85;44.47;95912.94;5115139;28;20055;-66
2024/01/14 10:49:26;;;;;;;1999.90;999.90;;;;;;;3.85;44.14;95910.34;5115291;28;20054;-64
2024/01/14 10:51:59;;;;;;;1999.90;999.90;;;;;;;4.01;44.57;95899.69;5114920;28;20436;-66
2024/01/14 10:54:35;;;;;;;1999.90;999.90;;;;;;;4.18;44.15;95904.47;5114995;28;20075;-66
2024/01/14 10:57:22;;;;;;;1999.90;999.90;;;;;;;4.27;44.06;95904.25;5115124;28;20040;-65
2024/01/14 10:59:52;;;;;;;1999.90;999.90;;;;;;;4.45;44.26;95907.31;5114873;28;20078;-65